Sexsmith, Canada
Current Conditions -  °F | °C
As of 5:00 AM on Friday 19 Dec 2014 (Local Time) from CYQU Reporting Station
Broken Clouds Broken Clouds  
Wind Chill:   Ceiling: 12000
Heat Index:   Visibility: 15mi
Dew Point:   Wind: 2mph
Humidity: 85%   Direction: NA
Pressure: 29.61"   Gusts: NA
Location:  55.35°N, 118.78°W
Report Text: CYQU 191200Z VRB02KT 15SM FEW080 BKN120 M13/M15 A2961 RMK AC1AC4 SLP079
Loading
Personal Weather Stations






























Interactive Weather Map New forecast layout! Learn more

10-Day Weather Forecast

Advertisements
Track Severe Weather on mobile